Time;durP1;ratioP1;P1;durP2;ratioP2;P2;SDS_P1;SDS_P2;PMS_P1;PMS_P2;Temp;Humidity;BMP_temperature;BMP_pressure;BME280_temperature;BME280_humidity;BME280_pressure;Samples;Min_cycle;Max_cycle;Signal;HPM_P1;HPM_P2
2021/07/15 00:00:08;;;;;;;0.30;0.30;;;16.20;99.90;;;;;;5058989;28;20450;-80
2021/07/15 00:02:35;;;;;;;0.30;0.30;;;16.20;99.90;;;;;;5059829;28;20313;-80
2021/07/15 00:05:05;;;;;;;0.20;0.20;;;16.20;99.90;;;;;;5062565;28;20959;-80
2021/07/15 00:07:32;;;;;;;0.30;0.30;;;16.20;99.90;;;;;;5061456;28;20833;-79
2021/07/15 00:09:59;;;;;;;0.30;0.30;;;16.20;99.90;;;;;;5060909;28;20212;-79
2021/07/15 00:12:26;;;;;;;0.40;0.30;;;16.20;99.90;;;;;;5060587;28;20507;-80
2021/07/15 00:14:53;;;;;;;3.03;0.30;;;16.20;99.90;;;;;;5059192;28;20494;-78
2021/07/15 00:17:21;;;;;;;0.30;0.30;;;16.20;99.90;;;;;;5058802;28;20555;-79
2021/07/15 00:19:48;;;;;;;0.23;0.20;;;16.20;99.90;;;;;;5059307;28;21084;-80
2021/07/15 00:22:15;;;;;;;0.50;0.30;;;16.20;99.90;;;;;;5063272;28;20475;-83
2021/07/15 00:24:42;;;;;;;0.37;0.33;;;16.10;99.90;;;;;;5074277;28;20455;-81
2021/07/15 00:27:09;;;;;;;0.50;0.40;;;16.10;99.90;;;;;;5076210;28;20493;-82
2021/07/15 00:29:36;;;;;;;0.30;0.30;;;16.00;99.90;;;;;;5079058;28;20240;-82
2021/07/15 00:32:04;;;;;;;0.52;0.30;;;16.00;99.90;;;;;;5079461;28;20468;-81
2021/07/15 00:34:32;;;;;;;0.30;0.30;;;16.00;99.90;;;;;;5079849;28;20196;-82
2021/07/15 00:36:59;;;;;;;1.42;0.32;;;16.00;99.90;;;;;;5078152;28;20470;-81
2021/07/15 00:39:26;;;;;;;0.40;0.30;;;16.00;99.90;;;;;;5077259;28;20208;-81
2021/07/15 00:41:53;;;;;;;0.30;0.30;;;16.10;99.90;;;;;;5075317;28;20210;-81
2021/07/15 00:44:20;;;;;;;0.22;0.22;;;16.00;99.90;;;;;;5066778;28;20213;-80
2021/07/15 00:46:47;;;;;;;0.30;0.30;;;16.00;99.90;;;;;;5062177;28;20263;-81
2021/07/15 00:49:14;;;;;;;5.05;0.30;;;16.00;99.90;;;;;;5059945;28;20487;-81
2021/07/15 00:51:42;;;;;;;2.00;0.50;;;16.00;99.90;;;;;;5061437;28;20214;-81
2021/07/15 00:54:09;;;;;;;0.63;0.40;;;16.00;99.90;;;;;;5063120;28;20458;-80
2021/07/15 00:56:36;;;;;;;0.30;0.30;;;16.00;99.90;;;;;;5062785;28;20456;-80
2021/07/15 00:59:03;;;;;;;0.60;0.30;;;15.90;99.90;;;;;;5061746;28;20205;-80
2021/07/15 01:01:30;;;;;;;0.50;0.30;;;16.00;99.90;;;;;;5068901;28;20463;-79
2021/07/15 01:03:57;;;;;;;0.30;0.30;;;15.90;99.90;;;;;;5068816;28;20256;-81
2021/07/15 01:06:24;;;;;;;0.45;0.30;;;15.90;99.90;;;;;;5072153;28;20239;-80
2021/07/15 01:08:53;;;;;;;0.80;0.40;;;15.90;99.90;;;;;;5076181;28;20212;-81
2021/07/15 01:11:31;;;;;;;1.85;0.52;;;15.80;99.90;;;;;;5078854;28;20247;-82
2021/07/15 01:14:02;;;;;;;1.20;0.50;;;15.90;99.90;;;;;;5078581;28;20275;-81
2021/07/15 01:16:34;;;;;;;0.40;0.40;;;15.90;99.90;;;;;;5077467;28;20319;-80
2021/07/15 01:19:22;;;;;;;3.15;0.40;;;15.90;99.90;;;;;;5072537;28;20460;-80
2021/07/15 01:22:05;;;;;;;1.03;0.40;;;15.90;99.90;;;;;;5061708;28;20199;-80
2021/07/15 01:25:25;;;;;;;1.30;0.30;;;16.00;99.90;;;;;;5061528;28;20459;-80
2021/07/15 01:28:04;;;;;;;0.50;0.40;;;16.00;99.90;;;;;;4997618;28;20455;-81
2021/07/15 01:30:36;;;;;;;0.40;0.30;;;16.00;99.90;;;;;;4990141;28;20203;-82
2021/07/15 01:33:08;;;;;;;0.28;0.28;;;16.00;99.90;;;;;;5052406;28;20291;-79
2021/07/15 01:35:42;;;;;;;0.30;0.30;;;16.00;99.90;;;;;;5066266;28;20579;-81
2021/07/15 01:38:11;;;;;;;0.30;0.30;;;16.00;99.90;;;;;;5078566;28;20234;-81
2021/07/15 01:40:44;;;;;;;0.30;0.30;;;16.00;99.90;;;;;;5075695;28;20226;-79
2021/07/15 01:43:16;;;;;;;0.30;0.30;;;16.00;99.90;;;;;;5056375;28;20244;-80
2021/07/15 01:45:46;;;;;;;0.37;0.30;;;16.00;99.90;;;;;;5060888;28;20535;-80
2021/07/15 01:48:14;;;;;;;0.30;0.30;;;16.00;99.90;;;;;;5060002;28;20888;-79
2021/07/15 01:50:41;;;;;;;2.15;0.47;;;16.00;99.90;;;;;;5059899;28;20851;-79
2021/07/15 01:53:09;;;;;;;0.40;0.40;;;16.00;99.90;;;;;;5059952;28;20777;-80
2021/07/15 01:55:37;;;;;;;1.67;0.40;;;16.00;99.90;;;;;;5057938;28;20492;-79
2021/07/15 01:58:04;;;;;;;1.20;0.40;;;16.00;99.90;;;;;;5060779;28;20451;-80
2021/07/15 02:00:33;;;;;;;0.40;0.40;;;15.90;99.90;;;;;;5058014;28;20855;-79
2021/07/15 02:03:03;;;;;;;0.30;0.30;;;16.00;99.90;;;;;;5055016;28;20540;-79
2021/07/15 02:05:32;;;;;;;1.35;0.40;;;16.00;99.90;;;;;;5059730;28;20471;-80
2021/07/15 02:08:00;;;;;;;0.30;0.30;;;16.00;99.90;;;;;;5057989;28;20210;-80
2021/07/15 02:10:28;;;;;;;0.40;0.40;;;15.90;99.90;;;;;;5057457;28;20214;-79
2021/07/15 02:12:57;;;;;;;0.53;0.53;;;15.90;99.90;;;;;;5059133;28;20486;-81
2021/07/15 02:15:27;;;;;;;1.37;0.43;;;15.90;99.90;;;;;;5065959;28;20558;-79
2021/07/15 02:17:55;;;;;;;3.90;0.43;;;15.90;99.90;;;;;;5067101;28;20452;-80
2021/07/15 02:20:25;;;;;;;0.43;0.40;;;15.80;99.90;;;;;;5057648;28;20483;-80
2021/07/15 02:22:56;;;;;;;0.40;0.40;;;15.90;99.90;;;;;;5057202;28;20885;-80
2021/07/15 02:25:23;;;;;;;0.40;0.40;;;15.90;99.90;;;;;;5057703;28;20460;-80
2021/07/15 02:27:53;;;;;;;1.47;0.80;;;16.00;99.90;;;;;;5059057;28;20660;-80
2021/07/15 02:30:21;;;;;;;3.90;0.40;;;15.90;99.90;;;;;;5061687;28;20459;-80
2021/07/15 02:32:52;;;;;;;0.43;0.43;;;15.90;99.90;;;;;;5058698;28;21057;-80
2021/07/15 02:35:21;;;;;;;1.35;0.77;;;15.90;99.90;;;;;;5062216;28;20546;-79
2021/07/15 02:37:52;;;;;;;0.50;0.40;;;15.90;99.90;;;;;;5061554;28;20233;-79
2021/07/15 02:40:19;;;;;;;0.67;0.20;;;15.90;99.90;;;;;;5058134;28;20225;-80
2021/07/15 02:42:47;;;;;;;0.57;0.30;;;15.90;99.90;;;;;;5056424;28;21015;-80
2021/07/15 02:45:17;;;;;;;0.87;0.30;;;15.90;99.90;;;;;;5056569;28;20467;-80
2021/07/15 02:47:45;;;;;;;0.40;0.40;;;15.90;99.90;;;;;;5057838;28;20979;-79
2021/07/15 02:50:15;;;;;;;0.80;0.40;;;15.80;99.90;;;;;;5070888;28;20192;-80
2021/07/15 02:52:43;;;;;;;0.57;0.30;;;15.80;99.90;;;;;;5073064;28;20240;-79
2021/07/15 02:55:13;;;;;;;0.75;0.60;;;15.80;99.90;;;;;;5062978;28;20293;-79
2021/07/15 02:57:52;;;;;;;0.30;0.30;;;15.80;99.90;;;;;;5057277;28;20219;-80
2021/07/15 03:00:20;;;;;;;0.30;0.30;;;15.90;99.90;;;;;;5067922;28;20209;-80
2021/07/15 03:02:53;;;;;;;0.30;0.30;;;15.90;99.90;;;;;;5059571;28;20233;-79
2021/07/15 03:05:25;;;;;;;0.63;0.50;;;15.90;99.90;;;;;;5060152;28;20202;-80
2021/07/15 03:07:56;;;;;;;0.70;0.35;;;15.90;99.90;;;;;;5061081;28;20502;-81
2021/07/15 03:10:24;;;;;;;0.30;0.30;;;15.90;99.90;;;;;;5060347;28;20204;-79
2021/07/15 03:12:53;;;;;;;0.30;0.30;;;15.90;99.90;;;;;;5060869;28;20507;-79
2021/07/15 03:15:20;;;;;;;0.30;0.30;;;15.90;99.90;;;;;;5061767;28;20244;-80
2021/07/15 03:17:49;;;;;;;0.30;0.30;;;15.90;99.90;;;;;;5062232;28;20456;-80
2021/07/15 03:20:19;;;;;;;1.10;0.40;;;15.90;99.90;;;;;;5067611;28;20513;-80
2021/07/15 03:22:53;;;;;;;0.47;0.47;;;15.90;99.90;;;;;;5078286;28;20228;-79
2021/07/15 03:25:21;;;;;;;0.40;0.30;;;15.90;99.90;;;;;;5068797;28;20230;-82
2021/07/15 03:27:52;;;;;;;0.30;0.30;;;15.90;99.90;;;;;;5079522;28;20196;-80
2021/07/15 03:30:20;;;;;;;0.30;0.30;;;15.90;99.90;;;;;;5078382;28;20189;-82
2021/07/15 03:32:50;;;;;;;0.70;0.43;;;15.80;99.90;;;;;;5077987;28;20240;-80
2021/07/15 03:35:18;;;;;;;0.30;0.30;;;15.80;99.90;;;;;;5066102;28;20450;-81
2021/07/15 03:37:47;;;;;;;2.50;0.30;;;15.80;99.90;;;;;;5063124;28;20265;-79
2021/07/15 03:40:17;;;;;;;1.13;0.40;;;15.80;99.90;;;;;;5064988;28;20291;-80
2021/07/15 03:42:45;;;;;;;0.30;0.30;;;15.70;99.90;;;;;;5065074;28;20500;-81
2021/07/15 03:45:16;;;;;;;2.77;0.40;;;15.70;99.90;;;;;;5071187;28;20232;-81
2021/07/15 03:47:43;;;;;;;0.30;0.20;;;15.70;99.90;;;;;;5073165;28;20475;-81
2021/07/15 03:50:11;;;;;;;2.17;0.40;;;15.80;99.90;;;;;;5061749;28;20265;-80
2021/07/15 03:52:40;;;;;;;0.30;0.30;;;15.80;99.90;;;;;;5070149;28;20248;-80
2021/07/15 03:55:09;;;;;;;0.40;0.40;;;15.80;99.90;;;;;;5076236;28;20514;-81
2021/07/15 03:57:37;;;;;;;0.33;0.20;;;15.80;99.90;;;;;;5079667;28;20474;-82
2021/07/15 04:00:06;;;;;;;0.40;0.40;;;15.80;99.90;;;;;;5079690;28;20459;-81
2021/07/15 04:02:38;;;;;;;0.52;0.30;;;15.70;99.90;;;;;;5068194;28;20256;-81
2021/07/15 04:05:08;;;;;;;0.30;0.30;;;15.70;99.90;;;;;;5060969;28;20201;-81
2021/07/15 04:07:35;;;;;;;0.40;0.30;;;15.70;99.90;;;;;;5066463;28;20425;-81
2021/07/15 04:10:04;;;;;;;0.70;0.40;;;15.70;99.90;;;;;;5079232;28;20452;-81
2021/07/15 04:12:37;;;;;;;0.60;0.40;;;15.80;99.90;;;;;;5062001;28;20543;-81
2021/07/15 04:15:08;;;;;;;1.38;0.50;;;15.80;99.90;;;;;;5069649;28;20498;-82
2021/07/15 04:17:40;;;;;;;1.33;0.40;;;15.80;99.90;;;;;;5077268;28;20210;-79
2021/07/15 04:20:10;;;;;;;0.50;0.50;;;15.80;99.90;;;;;;5061063;28;20258;-81
2021/07/15 04:22:39;;;;;;;0.57;0.50;;;15.80;99.90;;;;;;5061904;28;20467;-81
2021/07/15 04:25:17;;;;;;;0.47;0.40;;;15.80;99.90;;;;;;5064000;28;20217;-81
2021/07/15 04:27:45;;;;;;;0.85;0.40;;;15.80;99.90;;;;;;5065754;28;20221;-79
2021/07/15 04:30:13;;;;;;;0.50;0.40;;;15.80;99.90;;;;;;5065447;28;20235;-81
2021/07/15 04:32:44;;;;;;;1.50;0.40;;;15.80;99.90;;;;;;5082941;22;20235;-86
2021/07/15 04:35:13;;;;;;;0.40;0.30;;;15.80;99.90;;;;;;5064161;28;20539;-85
2021/07/15 04:37:42;;;;;;;0.22;0.22;;;15.80;99.90;;;;;;5063606;28;20217;-84
2021/07/15 04:40:11;;;;;;;2.10;0.55;;;15.80;99.90;;;;;;5070850;28;20217;-86
2021/07/15 04:42:38;;;;;;;0.50;0.50;;;15.80;99.90;;;;;;5071974;28;20245;-87
2021/07/15 04:45:07;;;;;;;0.50;0.30;;;15.90;99.90;;;;;;5057914;28;20219;-86
2021/07/15 04:47:35;;;;;;;0.70;0.37;;;15.90;99.90;;;;;;5059029;28;20182;-89
2021/07/15 04:50:04;;;;;;;0.70;0.70;;;15.90;99.90;;;;;;5059097;28;20449;-89
2021/07/15 04:52:33;;;;;;;1.37;0.60;;;15.90;99.90;;;;;;5059036;28;20473;-91
2021/07/15 04:55:00;;;;;;;0.60;0.40;;;15.90;99.90;;;;;;5058707;28;20495;-87
2021/07/15 04:57:29;;;;;;;2.67;0.60;;;16.00;99.90;;;;;;5051501;28;20216;-85
2021/07/15 04:59:57;;;;;;;0.30;0.30;;;16.00;99.90;;;;;;5054376;28;20457;-86
2021/07/15 05:02:24;;;;;;;0.65;0.65;;;16.00;99.90;;;;;;5050888;28;20484;-84
2021/07/15 05:04:51;;;;;;;0.70;0.70;;;16.00;99.90;;;;;;5040050;28;20214;-84
2021/07/15 05:07:19;;;;;;;0.38;0.38;;;16.00;99.90;;;;;;5040823;28;20507;-85
2021/07/15 05:09:46;;;;;;;1.15;0.50;;;16.00;99.90;;;;;;5051546;28;20245;-85
2021/07/15 05:12:13;;;;;;;1.13;0.40;;;16.00;99.90;;;;;;5057622;28;20225;-89
2021/07/15 05:14:43;;;;;;;0.80;0.50;;;16.10;99.90;;;;;;5058097;28;20199;-86
2021/07/15 05:17:11;;;;;;;1.00;0.53;;;16.10;99.90;;;;;;5058469;28;20195;-89
2021/07/15 05:19:38;;;;;;;1.53;0.50;;;16.20;99.90;;;;;;5057223;28;20433;-87
2021/07/15 05:22:05;;;;;;;0.60;0.43;;;16.30;99.90;;;;;;5053974;28;20484;-85
2021/07/15 05:24:34;;;;;;;2.30;0.50;;;16.30;99.90;;;;;;5048608;28;20481;-85
2021/07/15 05:27:01;;;;;;;0.50;0.50;;;16.40;99.90;;;;;;5040374;28;20464;-83
2021/07/15 05:29:29;;;;;;;1.43;0.40;;;16.40;99.90;;;;;;5038385;28;20465;-83
2021/07/15 05:31:56;;;;;;;0.40;0.40;;;16.40;99.90;;;;;;5045264;28;20445;-88
2021/07/15 05:34:22;;;;;;;0.33;0.30;;;16.40;99.90;;;;;;5054943;28;20484;-84
2021/07/15 05:36:49;;;;;;;1.00;0.33;;;16.40;99.90;;;;;;5053288;28;20468;-85
2021/07/15 05:39:16;;;;;;;1.83;0.50;;;16.40;99.90;;;;;;5037848;28;20540;-85
2021/07/15 05:41:45;;;;;;;0.87;0.50;;;16.40;99.90;;;;;;5037798;28;21078;-84
2021/07/15 05:44:12;;;;;;;0.93;0.40;;;16.40;99.90;;;;;;5038013;28;20532;-83
2021/07/15 05:46:39;;;;;;;0.40;0.30;;;16.40;99.90;;;;;;5039294;28;20465;-84
2021/07/15 05:49:06;;;;;;;0.40;0.40;;;16.30;99.90;;;;;;5039423;28;20256;-85
2021/07/15 05:51:33;;;;;;;0.60;0.60;;;16.40;99.90;;;;;;5039930;28;20234;-84
2021/07/15 05:54:00;;;;;;;0.40;0.40;;;16.40;99.90;;;;;;5050428;28;20258;-86
2021/07/15 05:56:27;;;;;;;1.55;0.70;;;16.40;99.90;;;;;;5039096;28;20461;-86
2021/07/15 05:58:56;;;;;;;0.97;0.83;;;16.40;99.90;;;;;;5024039;28;20821;-84
2021/07/15 06:01:23;;;;;;;3.03;0.85;;;16.50;99.90;;;;;;5019294;28;20493;-86
2021/07/15 06:03:50;;;;;;;0.90;0.90;;;16.50;99.90;;;;;;5023742;28;20226;-87
2021/07/15 06:06:17;;;;;;;1.57;1.47;;;16.50;99.90;;;;;;5022963;28;20214;-84
2021/07/15 06:08:44;;;;;;;1.05;0.77;;;16.60;99.90;;;;;;5036786;28;20504;-85
2021/07/15 06:11:11;;;;;;;2.03;0.90;;;16.60;99.90;;;;;;5044780;28;20310;-86
2021/07/15 06:13:38;;;;;;;1.53;0.70;;;16.50;99.90;;;;;;5040215;28;20843;-85
2021/07/15 06:16:06;;;;;;;1.15;0.80;;;16.60;99.90;;;;;;5041714;28;21134;-85
2021/07/15 06:18:34;;;;;;;0.70;0.70;;;16.60;99.90;;;;;;5041237;28;20623;-86
2021/07/15 06:21:01;;;;;;;1.17;1.07;;;16.50;99.90;;;;;;5037702;28;20481;-86
2021/07/15 06:23:28;;;;;;;0.97;0.80;;;16.50;99.90;;;;;;5036815;28;20477;-85
2021/07/15 06:25:55;;;;;;;1.30;1.20;;;16.60;99.90;;;;;;5038838;28;20479;-87
2021/07/15 06:28:22;;;;;;;1.10;1.00;;;16.70;99.90;;;;;;5039111;28;20450;-86
2021/07/15 06:30:49;;;;;;;17.73;2.50;;;16.80;99.90;;;;;;5039322;28;20493;-85
2021/07/15 06:33:18;;;;;;;2.27;1.20;;;16.90;99.90;;;;;;5036520;28;20552;-85
2021/07/15 06:35:49;;;;;;;1.37;0.83;;;17.00;99.90;;;;;;5036489;28;20465;-85
2021/07/15 06:38:16;;;;;;;1.20;1.10;;;17.10;99.90;;;;;;5036567;28;20455;-85
2021/07/15 06:40:45;;;;;;;1.90;1.00;;;17.20;99.90;;;;;;5036553;28;20462;-86
2021/07/15 06:43:12;;;;;;;0.90;0.90;;;17.30;99.90;;;;;;5035383;28;20556;-86
2021/07/15 06:45:39;;;;;;;4.60;1.37;;;17.40;99.90;;;;;;5034893;28;20461;-88
2021/07/15 06:48:06;;;;;;;3.30;1.40;;;17.50;99.90;;;;;;5033607;28;20493;-89
2021/07/15 06:50:34;;;;;;;2.00;1.00;;;17.80;99.90;;;;;;5042522;28;20426;-86
2021/07/15 06:53:01;;;;;;;0.93;0.90;;;18.20;99.90;;;;;;5055629;28;20461;-84
2021/07/15 06:55:29;;;;;;;2.30;1.27;;;18.50;99.50;;;;;;5051418;28;20466;-84
2021/07/15 06:57:56;;;;;;;1.50;1.30;;;18.80;97.10;;;;;;5047484;28;20434;-85
2021/07/15 07:00:23;;;;;;;2.13;1.10;;;18.90;94.30;;;;;;5054160;28;20438;-87
2021/07/15 07:02:50;;;;;;;2.30;0.80;;;18.90;93.00;;;;;;5055559;28;20572;-85
2021/07/15 07:05:18;;;;;;;2.80;0.80;;;19.00;91.60;;;;;;5054692;28;20458;-87
2021/07/15 07:07:47;;;;;;;0.87;0.87;;;19.10;90.80;;;;;;5055752;28;20430;-84
2021/07/15 07:10:15;;;;;;;1.27;0.83;;;19.20;91.00;;;;;;5055500;28;20580;-84
2021/07/15 07:12:42;;;;;;;1.07;0.97;;;19.20;90.00;;;;;;5055897;28;20472;-84
2021/07/15 07:15:13;;;;;;;1.97;0.80;;;19.20;90.30;;;;;;5055449;28;20462;-85
2021/07/15 07:17:40;;;;;;;2.03;0.93;;;19.10;90.20;;;;;;5054458;28;20442;-84
2021/07/15 07:20:09;;;;;;;1.70;0.83;;;19.30;90.80;;;;;;5055514;28;20438;-84
2021/07/15 07:22:37;;;;;;;2.90;0.90;;;19.20;89.60;;;;;;5055747;28;20486;-85
2021/07/15 07:25:07;;;;;;;1.70;1.30;;;19.40;90.20;;;;;;5055640;28;20433;-83
2021/07/15 07:27:34;;;;;;;2.00;0.70;;;19.60;89.30;;;;;;5053335;28;20456;-87
2021/07/15 07:30:02;;;;;;;1.37;0.90;;;19.70;85.10;;;;;;5034986;28;20496;-87
2021/07/15 07:32:29;;;;;;;0.90;0.80;;;19.60;86.70;;;;;;5035460;28;20875;-85
2021/07/15 07:34:56;;;;;;;4.57;0.90;;;19.30;86.40;;;;;;5041621;28;20425;-87
2021/07/15 07:37:23;;;;;;;0.77;0.70;;;19.10;88.20;;;;;;5035859;28;20831;-86
2021/07/15 07:39:50;;;;;;;0.93;0.80;;;18.80;90.50;;;;;;5034596;28;20926;-85
2021/07/15 07:42:18;;;;;;;4.43;1.07;;;18.70;92.20;;;;;;5036597;28;20505;-86
2021/07/15 07:44:45;;;;;;;1.17;0.90;;;18.40;93.30;;;;;;5043326;28;20466;-86
2021/07/15 07:47:12;;;;;;;1.00;0.90;;;18.20;94.40;;;;;;5036066;28;20482;-87
2021/07/15 07:49:39;;;;;;;0.80;0.80;;;18.10;94.60;;;;;;5041187;28;20989;-88
2021/07/15 07:52:07;;;;;;;1.50;0.90;;;18.30;95.40;;;;;;5034932;28;20458;-86
2021/07/15 07:54:34;;;;;;;3.30;0.90;;;18.50;95.00;;;;;;5030994;28;20458;-85
2021/07/15 07:57:01;;;;;;;1.00;0.90;;;18.80;93.10;;;;;;5047094;28;20761;-84
2021/07/15 07:59:29;;;;;;;0.90;0.90;;;19.00;91.90;;;;;;5055841;28;20655;-84
2021/07/15 08:01:56;;;;;;;1.23;0.70;;;19.20;91.40;;;;;;5052036;28;20526;-85
2021/07/15 08:04:23;;;;;;;0.70;0.70;;;19.40;90.20;;;;;;5048770;28;20451;-85
2021/07/15 08:06:50;;;;;;;1.57;0.70;;;19.50;88.10;;;;;;5056283;28;20439;-85
2021/07/15 08:09:22;;;;;;;1.80;1.10;;;19.50;85.60;;;;;;5052863;28;20908;-85
2021/07/15 08:11:51;;;;;;;2.63;0.60;;;19.80;85.20;;;;;;5040638;28;20452;-86
2021/07/15 08:14:18;;;;;;;1.33;0.70;;;20.10;84.60;;;;;;5041813;28;20483;-84
2021/07/15 08:16:47;;;;;;;1.03;0.70;;;20.30;80.30;;;;;;5044847;28;20451;-86
2021/07/15 08:19:14;;;;;;;0.60;0.60;;;20.40;77.30;;;;;;5042968;28;20456;-86
2021/07/15 08:21:41;;;;;;;0.50;0.50;;;20.40;78.40;;;;;;5041771;28;20491;-86
2021/07/15 08:24:08;;;;;;;0.93;0.63;;;20.30;77.40;;;;;;5044684;28;20481;-85
2021/07/15 08:26:35;;;;;;;4.03;0.80;;;20.40;77.10;;;;;;5057708;28;20448;-85
2021/07/15 08:29:03;;;;;;;0.50;0.50;;;20.50;76.70;;;;;;5058136;28;20423;-84
2021/07/15 08:31:30;;;;;;;0.70;0.70;;;20.50;74.60;;;;;;5058161;28;20478;-84
2021/07/15 08:33:58;;;;;;;1.83;0.77;;;20.70;75.20;;;;;;5057062;28;20480;-85
2021/07/15 08:36:26;;;;;;;3.13;0.70;;;20.60;73.80;;;;;;5052985;28;20456;-85
2021/07/15 08:38:53;;;;;;;8.90;1.20;;;20.30;75.60;;;;;;5056577;28;20505;-85
2021/07/15 08:41:21;;;;;;;7.70;1.50;;;20.00;77.60;;;;;;5057012;28;20443;-84
2021/07/15 08:43:49;;;;;;;8.23;1.00;;;19.80;79.70;;;;;;5056755;28;20457;-84
2021/07/15 08:46:16;;;;;;;6.50;1.20;;;19.60;82.40;;;;;;5053451;28;20464;-85
2021/07/15 08:48:45;;;;;;;1.33;0.80;;;19.50;85.00;;;;;;5057871;28;20414;-85
2021/07/15 08:51:14;;;;;;;0.70;0.70;;;19.30;85.50;;;;;;5052969;28;20463;-87
2021/07/15 08:53:43;;;;;;;4.23;1.20;;;19.20;86.50;;;;;;5050219;28;21038;-85
2021/07/15 08:58:57;;;;;;;1.37;0.90;;;19.20;89.50;;;;;;5054939;28;20411;-83
2021/07/15 09:01:27;;;;;;;1.60;1.10;;;19.20;86.60;;;;;;5051767;28;20466;-86
2021/07/15 09:03:55;;;;;;;1.70;1.10;;;18.90;88.30;;;;;;5039581;28;20479;-85
2021/07/15 09:06:24;;;;;;;0.90;0.80;;;18.90;91.20;;;;;;5041463;28;20496;-85
2021/07/15 09:08:53;;;;;;;0.97;0.80;;;19.50;90.20;;;;;;5047598;28;20460;-84
2021/07/15 09:11:20;;;;;;;1.07;0.93;;;20.00;85.40;;;;;;5051162;28;20494;-84
2021/07/15 09:13:47;;;;;;;1.07;0.87;;;20.30;80.10;;;;;;5048853;28;20479;-81
2021/07/15 09:16:16;;;;;;;0.70;0.70;;;20.50;77.20;;;;;;5042111;28;20485;-82
2021/07/15 09:18:58;;;;;;;1.93;1.00;;;20.80;76.50;;;;;;5042275;28;20500;-82
2021/07/15 09:21:30;;;;;;;0.93;0.90;;;20.90;72.20;;;;;;5038190;28;20496;-82
2021/07/15 09:23:57;;;;;;;0.90;0.80;;;21.00;71.30;;;;;;5046544;28;20526;-81
2021/07/15 09:26:25;;;;;;;1.60;0.70;;;21.00;68.70;;;;;;5044826;28;20461;-82
2021/07/15 09:28:51;;;;;;;1.13;1.10;;;20.60;71.80;;;;;;5047065;28;20419;-80
2021/07/15 09:31:23;;;;;;;1.30;1.20;;;20.50;72.70;;;;;;5047287;28;20484;-82
2021/07/15 09:33:50;;;;;;;1.13;1.00;;;20.00;74.80;;;;;;5047602;28;20480;-80
2021/07/15 09:36:21;;;;;;;1.73;0.90;;;19.40;79.90;;;;;;5044978;28;20478;-81
2021/07/15 09:38:50;;;;;;;1.30;1.20;;;19.30;80.60;;;;;;5049340;28;20455;-81
2021/07/15 09:41:19;;;;;;;1.23;1.13;;;19.50;81.50;;;;;;5053818;28;20456;-85
2021/07/15 09:43:47;;;;;;;1.10;1.00;;;19.50;80.00;;;;;;5056637;28;20543;-84
2021/07/15 09:46:19;;;;;;;1.37;1.10;;;19.50;80.50;;;;;;5055206;28;20991;-86
2021/07/15 09:48:48;;;;;;;1.40;1.30;;;19.70;80.50;;;;;;5036052;28;20439;-88
2021/07/15 09:51:17;;;;;;;1.20;1.10;;;20.00;76.70;;;;;;5034887;28;20481;-81
2021/07/15 09:53:45;;;;;;;1.30;1.20;;;19.40;76.20;;;;;;5020917;28;20482;-81
2021/07/15 09:56:16;;;;;;;1.80;1.00;;;19.20;78.80;;;;;;5022079;28;20493;-82
2021/07/15 09:58:45;;;;;;;2.57;1.20;;;19.30;81.50;;;;;;5022861;28;20451;-82
2021/07/15 10:01:13;;;;;;;1.20;1.10;;;19.90;77.20;;;;;;5019059;28;20484;-82
2021/07/15 10:03:43;;;;;;;4.03;1.07;;;20.20;74.90;;;;;;5019333;28;21001;-81
2021/07/15 10:06:11;;;;;;;2.20;1.40;;;20.70;73.70;;;;;;5019786;28;20982;-82
2021/07/15 10:08:40;;;;;;;1.20;1.13;;;21.40;69.10;;;;;;5019819;28;20473;-82
2021/07/15 10:11:18;;;;;;;0.87;0.87;;;21.70;64.50;;;;;;5018435;28;20549;-82
2021/07/15 10:13:47;;;;;;;1.40;1.20;;;20.90;68.60;;;;;;5018928;28;20514;-82
2021/07/15 10:16:14;;;;;;;5.20;1.63;;;21.50;65.60;;;;;;5018046;28;20475;-83
2021/07/15 10:18:44;;;;;;;1.70;1.30;;;21.40;64.90;;;;;;5017855;28;20455;-81
2021/07/15 10:21:13;;;;;;;2.57;1.10;;;22.30;60.70;;;;;;5021910;28;20799;-81
2021/07/15 10:23:41;;;;;;;1.80;1.20;;;23.10;58.10;;;;;;5036756;28;20474;-84
2021/07/15 10:26:10;;;;;;;1.60;1.50;;;23.50;55.60;;;;;;5041319;28;20456;-86
2021/07/15 10:28:39;;;;;;;1.30;1.27;;;23.50;55.50;;;;;;5035411;28;20962;-85
2021/07/15 10:31:08;;;;;;;1.50;1.40;;;23.40;56.20;;;;;;5038321;28;20506;-84
2021/07/15 10:33:36;;;;;;;1.60;1.27;;;23.70;55.70;;;;;;5038671;28;20527;-82
2021/07/15 10:36:05;;;;;;;1.60;1.50;;;24.30;52.90;;;;;;5038955;28;20492;-82
2021/07/15 10:38:37;;;;;;;1.40;1.30;;;24.90;50.70;;;;;;5043036;28;20529;-82
2021/07/15 10:41:04;;;;;;;1.60;1.20;;;25.30;48.20;;;;;;5043279;28;20458;-83
2021/07/15 10:43:32;;;;;;;1.70;1.10;;;25.20;48.40;;;;;;5053135;28;20492;-85
2021/07/15 10:46:02;;;;;;;0.90;0.90;;;24.90;49.80;;;;;;5053848;28;20423;-85
2021/07/15 10:48:30;;;;;;;1.90;1.27;;;24.80;50.20;;;;;;5041258;28;20523;-84
2021/07/15 10:50:59;;;;;;;1.43;1.33;;;24.90;50.50;;;;;;5061869;28;20457;-83
2021/07/15 10:53:27;;;;;;;1.33;1.23;;;24.80;48.30;;;;;;5041853;28;20635;-84
2021/07/15 10:55:55;;;;;;;2.80;1.50;;;24.40;49.00;;;;;;5020060;28;20493;-84
2021/07/15 10:58:41;;;;;;;1.20;1.20;;;24.30;49.00;;;;;;5019807;28;20488;-83
2021/07/15 11:01:10;;;;;;;1.30;1.30;;;24.50;48.20;;;;;;5020558;28;20442;-83
2021/07/15 11:03:37;;;;;;;1.20;1.20;;;24.80;47.80;;;;;;5033835;28;20508;-83
2021/07/15 11:06:04;;;;;;;1.47;1.37;;;24.70;47.10;;;;;;5030257;28;20484;-83
2021/07/15 11:09:00;;;;;;;2.00;1.90;;;23.80;49.20;;;;;;5018027;28;20469;-83
2021/07/15 11:11:51;;;;;;;1.20;1.10;;;24.00;50.00;;;;;;5006068;28;20462;-82
2021/07/15 11:14:36;;;;;;;1.53;1.10;;;24.70;47.40;;;;;;5021954;28;20477;-83
2021/07/15 11:17:25;;;;;;;2.33;1.27;;;25.00;47.60;;;;;;5039719;28;20479;-82
2021/07/15 11:20:11;;;;;;;1.63;1.50;;;24.90;47.10;;;;;;5039138;28;20461;-82
2021/07/15 11:22:45;;;;;;;2.30;1.40;;;25.20;45.60;;;;;;5040342;28;20991;-82
2021/07/15 11:25:17;;;;;;;2.43;1.50;;;24.90;47.00;;;;;;5042586;28;20509;-82
2021/07/15 11:27:49;;;;;;;4.57;1.57;;;23.70;50.70;;;;;;5050670;28;20465;-82
2021/07/15 11:30:41;;;;;;;2.17;1.97;;;24.20;50.20;;;;;;5052769;28;20458;-83
2021/07/15 11:33:32;;;;;;;1.83;1.73;;;24.60;48.00;;;;;;5051650;28;20511;-82
2021/07/15 11:36:03;;;;;;;2.20;1.50;;;24.90;48.00;;;;;;5052464;28;20678;-82
2021/07/15 11:38:32;;;;;;;1.50;1.40;;;25.30;46.60;;;;;;5044317;28;20440;-82
2021/07/15 11:41:02;;;;;;;1.60;1.50;;;25.60;44.50;;;;;;5041378;28;20867;-83
2021/07/15 11:43:32;;;;;;;2.30;1.77;;;25.80;44.10;;;;;;5041624;28;20845;-83
2021/07/15 11:46:15;;;;;;;1.47;1.37;;;25.70;44.00;;;;;;5040986;28;20439;-83
2021/07/15 11:49:00;;;;;;;3.10;1.27;;;25.80;44.00;;;;;;5042153;28;20462;-82
2021/07/15 11:51:30;;;;;;;1.90;1.20;;;25.20;44.10;;;;;;5042474;28;20442;-84
2021/07/15 11:54:20;;;;;;;1.50;1.40;;;25.00;44.90;;;;;;5042980;28;20456;-82
2021/07/15 11:56:48;;;;;;;2.80;1.50;;;24.40;46.40;;;;;;5052957;28;20450;-86
2021/07/15 11:59:35;;;;;;;5.03;1.43;;;23.20;49.80;;;;;;5057556;28;20431;-85
2021/07/15 12:02:08;;;;;;;1.43;1.33;;;23.30;49.50;;;;;;5048559;28;20462;-82
2021/07/15 12:05:10;;;;;;;1.40;1.30;;;23.30;48.80;;;;;;5046333;28;20489;-82
2021/07/15 12:07:39;;;;;;;2.10;1.07;;;23.60;49.60;;;;;;5025480;28;20457;-84
2021/07/15 12:10:08;;;;;;;0.97;0.97;;;24.30;47.90;;;;;;5047204;28;20460;-83
2021/07/15 12:12:39;;;;;;;1.37;1.27;;;24.50;47.60;;;;;;5054356;28;20551;-83
2021/07/15 12:15:13;;;;;;;0.90;0.90;;;24.00;48.40;;;;;;5053989;28;20452;-83
2021/07/15 12:17:41;;;;;;;1.40;1.17;;;23.70;49.30;;;;;;5070420;28;20454;-83
2021/07/15 12:20:12;;;;;;;1.50;1.40;;;23.50;50.90;;;;;;5074391;28;20464;-83
2021/07/15 12:22:50;;;;;;;1.20;1.10;;;23.30;51.90;;;;;;5072806;28;20463;-84
2021/07/15 12:25:20;;;;;;;1.47;1.37;;;23.20;51.80;;;;;;5059429;28;20491;-84
2021/07/15 12:27:50;;;;;;;1.70;1.27;;;23.00;51.70;;;;;;5045983;28;20462;-82
2021/07/15 12:30:18;;;;;;;1.30;1.20;;;22.80;51.50;;;;;;5029147;28;20432;-82
2021/07/15 12:32:56;;;;;;;1.47;1.40;;;22.60;53.70;;;;;;5020940;28;20456;-85
2021/07/15 12:35:26;;;;;;;1.30;1.30;;;22.90;53.10;;;;;;5045295;28;20524;-83
2021/07/15 12:37:53;;;;;;;1.30;1.20;;;23.30;51.90;;;;;;5046258;28;20554;-82
2021/07/15 12:40:26;;;;;;;1.00;1.00;;;23.70;51.10;;;;;;5046259;28;20563;-82
2021/07/15 12:42:53;;;;;;;1.00;1.00;;;24.00;49.60;;;;;;5051794;28;20492;-85
2021/07/15 12:45:21;;;;;;;1.20;1.10;;;24.30;48.70;;;;;;5058261;28;20694;-83
2021/07/15 12:48:03;;;;;;;2.10;1.30;;;24.70;46.80;;;;;;5057140;28;20438;-83
2021/07/15 12:50:31;;;;;;;1.20;1.00;;;24.60;46.70;;;;;;5041538;28;20514;-83
2021/07/15 12:53:17;;;;;;;3.47;1.20;;;24.70;46.00;;;;;;5035207;28;20817;-83
2021/07/15 12:55:47;;;;;;;1.97;1.20;;;24.50;46.80;;;;;;5039419;28;20468;-81
2021/07/15 12:58:14;;;;;;;2.03;1.93;;;24.90;45.30;;;;;;5039324;28;20490;-81
2021/07/15 13:00:43;;;;;;;1.17;1.10;;;25.40;43.80;;;;;;5036881;28;20534;-82
2021/07/15 13:03:10;;;;;;;1.67;1.20;;;24.50;46.70;;;;;;5039550;28;20475;-81